Fritztown, Pennsylvania
Current Conditions -  °F | °C
As of 11:54 AM on Thursday 27 Nov 2014 (Local Time) from KRDG Reporting Station
Overcast Overcast  
Wind Chill: 32°   Ceiling: 2300
Heat Index: 37°   Visibility: 10mi
Dew Point: 26°   Wind: 7mph
Humidity: 65%   Direction: 330°NNW
Pressure: 30.02"   Gusts: NA
Location:  40.3199°N, 76.0339°W
Report Text: KRDG 271654Z 33006KT 10SM OVC023 03/M03 A3002 RMK AO2 SLP173 T00281033
Loading
Personal Weather Stations






























Interactive Weather Map New forecast layout! Learn more

10-Day Weather Forecast

Advertisements
Track Severe Weather on mobile